Terminal Aerodrome Forecast
Issued by NWS

Home | Current Version | Previous Version | Text Only | Print | Product List | Glossary On
Versions: 1 2 3 4 5 6 7 8 9 10 11 12 13 14 15
000
FTUS46 KSTO 270500
TAFMHR
TAF
KMHR 270520Z 2706/2806 21007KT P6SM SKC
     FM270700 18007KT P6SM SKC
      TEMPO 2712/2716 BKN008
     FM271900 23008KT P6SM SKC=

USA.gov is the U.S. government's official web portal to all federal, state and local government web resources and services.